Time;durP1;ratioP1;P1;durP2;ratioP2;P2;SDS_P1;SDS_P2;PMS_P1;PMS_P2;Temp;Humidity;BMP_temperature;BMP_pressure;BME280_temperature;BME280_humidity;BME280_pressure;Samples;Min_cycle;Max_cycle;Signal;HPM_P1;HPM_P2
2022/07/08 00:00:05;;;;;;;7.30;2.40;;;;;;;18.96;47.79;101727.78;5033293;28;20230;-65
2022/07/08 00:02:33;;;;;;;10.73;2.60;;;;;;;18.98;47.39;101717.69;5031951;28;20200;-65
2022/07/08 00:05:01;;;;;;;8.53;3.50;;;;;;;18.99;47.26;101728.28;5032846;28;20209;-65
2022/07/08 00:07:29;;;;;;;7.60;2.57;;;;;;;18.99;47.60;101725.59;5032893;28;20215;-65
2022/07/08 00:09:56;;;;;;;8.87;3.03;;;;;;;18.92;47.27;101729.97;5033176;28;20228;-65
2022/07/08 00:12:25;;;;;;;9.57;3.03;;;;;;;18.89;47.25;101724.09;5032385;28;20221;-65
2022/07/08 00:14:54;;;;;;;9.47;2.60;;;;;;;18.85;47.51;101726.28;5033089;28;20319;-65
2022/07/08 00:17:21;;;;;;;6.90;2.30;;;;;;;18.83;47.37;101730.16;5030662;28;20223;-65
2022/07/08 00:19:49;;;;;;;10.00;2.77;;;;;;;18.82;47.41;101733.88;5032197;28;20324;-66
2022/07/08 00:22:17;;;;;;;6.27;2.83;;;;;;;18.83;47.59;101733.66;5032353;28;20568;-65
2022/07/08 00:24:45;;;;;;;8.13;2.30;;;;;;;18.82;47.41;101731.19;5032216;28;20207;-65
2022/07/08 00:27:13;;;;;;;11.07;2.50;;;;;;;18.76;47.79;101740.75;5032042;28;20680;-65
2022/07/08 00:29:41;;;;;;;6.37;2.20;;;;;;;18.77;47.68;101742.44;5032852;28;20236;-65
2022/07/08 00:32:10;;;;;;;8.43;2.80;;;;;;;18.77;47.87;101739.75;5031839;28;20231;-65
2022/07/08 00:34:38;;;;;;;6.87;2.10;;;;;;;18.77;47.59;101737.06;5043750;28;20239;-65
2022/07/08 00:37:06;;;;;;;5.93;2.20;;;;;;;18.74;47.33;101734.69;5032721;28;20291;-65
2022/07/08 00:39:34;;;;;;;10.03;2.57;;;;;;;18.70;47.63;101736.06;5030366;28;20231;-65
2022/07/08 00:42:02;;;;;;;6.27;2.00;;;;;;;18.68;47.59;101741.59;5031870;28;20229;-65
2022/07/08 00:44:31;;;;;;;13.23;2.30;;;;;;;18.65;47.35;101735.72;5031881;28;20219;-65
2022/07/08 00:46:59;;;;;;;8.43;2.00;;;;;;;18.65;47.63;101743.78;5032196;28;20403;-64
2022/07/08 00:49:28;;;;;;;5.43;1.90;;;;;;;18.68;47.71;101751.50;5031719;28;20213;-64
2022/07/08 00:51:58;;;;;;;10.77;2.67;;;;;;;18.66;47.53;101758.91;5041150;28;20302;-64
2022/07/08 00:54:27;;;;;;;10.93;2.67;;;;;;;18.64;47.36;101764.47;5034504;28;20217;-64
2022/07/08 00:56:56;;;;;;;6.83;1.90;;;;;;;18.62;47.82;101760.25;5027364;28;20276;-65
2022/07/08 00:59:24;;;;;;;4.10;1.90;;;;;;;18.57;47.75;101762.59;5026463;28;20311;-64
2022/07/08 01:01:52;;;;;;;6.50;2.20;;;;;;;18.59;47.59;101765.97;5032016;28;20304;-65
2022/07/08 01:04:20;;;;;;;8.57;2.97;;;;;;;18.56;47.83;101767.09;5031661;28;20208;-66
2022/07/08 01:06:49;;;;;;;6.67;1.70;;;;;;;18.56;47.72;101760.91;5032339;28;20654;-65
2022/07/08 01:09:17;;;;;;;7.93;2.47;;;;;;;18.55;47.66;101776.19;5030803;28;20224;-65
2022/07/08 01:11:46;;;;;;;8.43;2.43;;;;;;;18.59;47.91;101761.44;5028335;28;20662;-65
2022/07/08 01:14:14;;;;;;;7.87;2.00;;;;;;;18.62;48.02;101760.25;5023915;28;20244;-65
2022/07/08 01:16:42;;;;;;;7.80;1.67;;;;;;;18.59;48.26;101765.97;5031818;28;20652;-66
2022/07/08 01:19:09;;;;;;;8.60;2.20;;;;;;;18.55;48.00;101769.97;5031277;28;20232;-64
2022/07/08 01:21:38;;;;;;;10.70;2.70;;;;;;;18.49;48.10;101770.63;5031448;28;20208;-65
2022/07/08 01:24:07;;;;;;;5.50;1.90;;;;;;;18.45;48.40;101775.53;5030905;28;20217;-64
2022/07/08 01:26:34;;;;;;;10.10;2.30;;;;;;;18.39;48.49;101768.94;5031451;28;20308;-65
2022/07/08 01:29:02;;;;;;;9.20;2.30;;;;;;;18.36;48.64;101773.84;5031257;28;20200;-64
2022/07/08 01:31:30;;;;;;;8.70;2.57;;;;;;;18.35;48.88;101767.63;5031429;28;20315;-65
2022/07/08 01:33:58;;;;;;;8.07;1.93;;;;;;;18.27;49.11;101772.16;5030132;28;20208;-65
2022/07/08 01:36:26;;;;;;;5.67;2.37;;;;;;;18.18;49.33;101771.31;5031260;28;20220;-65
2022/07/08 01:38:55;;;;;;;7.97;2.00;;;;;;;18.12;49.21;101771.94;5031211;28;20212;-66
2022/07/08 01:41:22;;;;;;;8.03;2.43;;;;;;;18.06;49.35;101769.94;5031570;28;20217;-66
2022/07/08 01:43:51;;;;;;;9.07;2.93;;;;;;;18.04;49.67;101772.78;5029991;28;20494;-65
2022/07/08 01:46:18;;;;;;;8.10;2.50;;;;;;;18.03;49.76;101764.88;5030437;28;20209;-65
2022/07/08 01:48:46;;;;;;;7.20;2.30;;;;;;;18.04;49.87;101766.56;5030851;28;20251;-66
2022/07/08 01:51:14;;;;;;;8.63;1.90;;;;;;;18.04;49.79;101763.88;5036543;28;20286;-65
2022/07/08 01:53:42;;;;;;;5.23;1.90;;;;;;;18.03;50.12;101773.78;5038242;28;20219;-65
2022/07/08 01:56:11;;;;;;;5.50;1.63;;;;;;;18.05;50.27;101779.00;5030779;28;20228;-65
2022/07/08 01:58:39;;;;;;;9.50;2.07;;;;;;;18.05;50.29;101779.84;5031177;28;20209;-66
2022/07/08 02:01:06;;;;;;;9.63;2.27;;;;;;;18.00;50.11;101773.28;5017022;28;20323;-65
2022/07/08 02:03:34;;;;;;;7.03;1.87;;;;;;;17.99;50.46;101782.34;5030570;28;20213;-65
2022/07/08 02:06:02;;;;;;;11.87;2.70;;;;;;;18.01;50.08;101785.72;5020661;28;20666;-65
2022/07/08 02:08:30;;;;;;;7.87;2.50;;;;;;;18.00;50.64;101792.91;5023751;28;20218;-65
2022/07/08 02:13:45;;;;;;;9.60;2.00;;;;;;;17.96;50.71;101791.56;5030423;28;20855;-65
2022/07/08 02:16:13;;;;;;;7.63;2.30;;;;;;;18.03;50.48;101797.09;5028323;28;20547;-65
2022/07/08 02:18:41;;;;;;;8.53;2.47;;;;;;;18.08;50.58;101791.25;5022534;28;20650;-66
2022/07/08 02:21:09;;;;;;;8.63;2.00;;;;;;;18.02;50.81;101793.59;5008514;28;20229;-66
2022/07/08 02:23:37;;;;;;;7.73;1.90;;;;;;;17.93;50.58;101796.44;5002856;28;20217;-66
2022/07/08 02:26:05;;;;;;;11.60;2.00;;;;;;;17.80;51.34;101790.66;5030641;28;20621;-66
2022/07/08 02:28:32;;;;;;;5.93;1.53;;;;;;;17.75;51.49;101787.66;5030103;28;20216;-65
2022/07/08 02:31:01;;;;;;;9.07;1.50;;;;;;;17.73;51.33;101784.28;5026033;28;20198;-65
2022/07/08 02:33:29;;;;;;;6.57;1.93;;;;;;;17.77;51.01;101785.63;5015980;28;20551;-66
2022/07/08 02:35:57;;;;;;;6.43;1.60;;;;;;;17.72;51.31;101783.44;5024462;28;20296;-65
2022/07/08 02:38:25;;;;;;;8.70;1.77;;;;;;;17.75;51.60;101793.03;5024951;28;20208;-65
2022/07/08 02:40:53;;;;;;;8.77;2.13;;;;;;;17.68;51.66;101796.31;5016928;28;20544;-64
2022/07/08 02:43:21;;;;;;;5.80;1.40;;;;;;;17.74;51.51;101804.75;5024668;28;20216;-64
2022/07/08 02:45:49;;;;;;;7.60;1.50;;;;;;;17.73;51.53;101795.88;5027356;28;20228;-65
2022/07/08 02:48:18;;;;;;;7.33;1.87;;;;;;;17.72;51.89;101793.34;5020081;28;20291;-64
2022/07/08 02:50:46;;;;;;;9.13;2.07;;;;;;;17.73;52.14;101803.06;5013663;28;20233;-64
2022/07/08 02:53:13;;;;;;;10.70;1.97;;;;;;;17.71;52.20;101802.38;5012016;28;20289;-65
2022/07/08 02:55:41;;;;;;;8.30;1.73;;;;;;;17.68;52.48;101796.31;5010492;28;20678;-65
2022/07/08 02:58:09;;;;;;;5.87;1.60;;;;;;;17.66;52.15;101810.94;5036823;28;20232;-64
2022/07/08 03:00:37;;;;;;;7.90;1.83;;;;;;;17.71;52.03;101810.44;5030863;28;20700;-65
2022/07/08 03:03:05;;;;;;;6.80;1.87;;;;;;;17.71;52.35;101802.38;5029923;28;20649;-64
2022/07/08 03:05:34;;;;;;;6.47;1.73;;;;;;;17.63;52.28;101797.84;5027070;28;20300;-64
2022/07/08 03:08:01;;;;;;;10.97;1.87;;;;;;;17.57;52.71;101791.25;5025473;28;20248;-64
2022/07/08 03:10:29;;;;;;;8.33;2.60;;;;;;;17.58;52.42;101792.94;5030296;28;20287;-65
2022/07/08 03:12:57;;;;;;;6.60;1.83;;;;;;;17.53;52.67;101795.25;5022493;28;20231;-65
2022/07/08 03:15:26;;;;;;;8.57;2.00;;;;;;;17.48;52.88;101802.09;5024788;28;20223;-64
2022/07/08 03:17:53;;;;;;;9.33;2.10;;;;;;;17.42;53.18;101803.56;5023344;28;20219;-64
2022/07/08 03:20:21;;;;;;;8.37;1.80;;;;;;;17.45;52.78;101808.63;5022865;28;20232;-64
2022/07/08 03:22:50;;;;;;;7.07;1.60;;;;;;;17.44;53.09;101806.94;5032151;28;20205;-65
2022/07/08 03:25:18;;;;;;;7.80;1.80;;;;;;;17.38;nan;101802.22;5033975;28;20292;-64
2022/07/08 03:27:48;;;;;;;6.73;2.20;;;;;;;17.38;53.02;101812.94;5034144;28;20212;-66
2022/07/08 03:30:16;;;;;;;6.10;1.50;;;;;;;17.37;53.02;101811.25;5034315;28;20296;-65
2022/07/08 03:32:43;;;;;;;8.47;1.60;;;;;;;17.30;53.38;101804.88;5032974;28;20236;-66
2022/07/08 03:35:11;;;;;;;7.40;1.80;;;;;;;17.35;53.32;101804.38;5031266;28;20209;-66
2022/07/08 03:37:42;;;;;;;9.03;2.30;;;;;;;17.36;53.08;101801.53;5026728;28;20296;-66
2022/07/08 03:42:58;;;;;;;7.07;1.33;;;;;;;17.32;53.17;101818.97;5033346;28;20213;-65
2022/07/08 03:45:26;;;;;;;4.03;1.40;;;;;;;17.34;52.89;101827.66;5033554;28;20724;-65
2022/07/08 03:47:54;;;;;;;6.60;1.50;;;;;;;17.32;52.94;101829.69;5019725;28;20208;-65
2022/07/08 03:50:22;;;;;;;5.37;1.90;;;;;;;17.32;52.88;101829.69;5033690;28;20209;-65
2022/07/08 03:52:50;;;;;;;12.03;2.60;;;;;;;17.36;52.66;101825.66;5032744;28;20205;-65
2022/07/08 03:55:21;;;;;;;7.50;1.80;;;;;;;17.33;53.06;101835.88;5033778;28;20305;-65
2022/07/08 03:57:49;;;;;;;7.50;1.70;;;;;;;17.32;52.86;101842.25;5033198;28;20232;-65
2022/07/08 04:00:19;;;;;;;7.57;1.83;;;;;;;17.26;53.16;101843.69;5033689;28;20868;-64
2022/07/08 04:02:47;;;;;;;6.60;1.77;;;;;;;17.23;52.91;101838.69;5028557;28;20300;-65
2022/07/08 04:05:15;;;;;;;7.20;1.73;;;;;;;17.23;53.02;101849.41;5025337;28;20223;-65
2022/07/08 04:07:43;;;;;;;8.50;1.97;;;;;;;17.19;53.17;101851.53;5033362;28;20303;-64
2022/07/08 04:10:16;;;;;;;6.33;1.43;;;;;;;17.16;53.39;101851.84;5023748;28;20353;-65
2022/07/08 04:12:45;;;;;;;7.93;1.63;;;;;;;17.15;53.44;101852.03;5024370;28;20296;-65
2022/07/08 04:15:13;;;;;;;7.17;1.73;;;;;;;17.10;53.51;101857.00;5026157;28;20208;-65
2022/07/08 04:17:41;;;;;;;8.33;1.57;;;;;;;17.14;53.50;101843.16;5026199;28;20661;-65
2022/07/08 04:20:10;;;;;;;7.60;1.90;;;;;;;17.20;52.85;101853.22;5030002;28;20677;-65
2022/07/08 04:22:37;;;;;;;10.23;1.90;;;;;;;17.22;52.72;101858.44;5031950;28;20229;-65
2022/07/08 04:25:07;;;;;;;5.80;1.43;;;;;;;17.28;52.91;101857.78;5032789;28;20566;-66
2022/07/08 04:27:35;;;;;;;7.73;2.63;;;;;;;17.35;52.63;101855.31;5033137;28;20204;-65
2022/07/08 04:30:05;;;;;;;9.60;2.33;;;;;;;17.41;52.81;101860.91;5032873;28;20263;-65
2022/07/08 04:32:33;;;;;;;5.20;1.90;;;;;;;17.37;52.75;101856.00;5033771;28;20705;-65
2022/07/08 04:35:01;;;;;;;7.93;2.20;;;;;;;17.37;52.37;101858.69;5026061;28;20303;-66
2022/07/08 04:37:29;;;;;;;7.47;1.63;;;;;;;17.38;52.82;101861.22;5024794;28;20263;-67
2022/07/08 04:39:56;;;;;;;9.97;1.60;;;;;;;17.39;52.84;101873.63;5025898;28;20677;-66
2022/07/08 04:42:24;;;;;;;4.90;1.50;;;;;;;17.43;52.74;101871.44;5027720;28;20232;-65
2022/07/08 04:44:52;;;;;;;7.97;1.60;;;;;;;17.42;52.59;101870.59;5027910;28;20574;-65
2022/07/08 04:47:21;;;;;;;4.70;1.23;;;;;;;17.43;52.84;101869.59;5019191;28;20221;-65
2022/07/08 04:49:49;;;;;;;6.57;1.53;;;;;;;17.43;52.62;101869.59;5031545;28;20307;-65
2022/07/08 04:52:16;;;;;;;4.70;1.33;;;;;;;17.46;52.96;101880.03;5032775;28;20886;-65
2022/07/08 04:54:44;;;;;;;6.70;1.53;;;;;;;17.50;53.03;101873.31;5032179;28;20215;-66
2022/07/08 04:57:12;;;;;;;3.40;1.30;;;;;;;17.55;53.01;101881.75;5031232;28;20648;-65
2022/07/08 04:59:40;;;;;;;6.77;1.97;;;;;;;17.52;52.48;101884.75;5026393;28;20240;-65
2022/07/08 05:02:07;;;;;;;6.07;1.70;;;;;;;17.53;52.68;101883.75;5029063;28;20593;-65
2022/07/08 05:04:37;;;;;;;7.60;1.47;;;;;;;17.58;52.77;101894.84;5031561;28;20205;-65
2022/07/08 05:07:04;;;;;;;5.30;1.70;;;;;;;17.58;52.60;101900.22;5026703;28;20205;-65
2022/07/08 05:09:32;;;;;;;13.47;2.10;;;;;;;17.64;52.50;101898.75;5018311;28;20651;-64
2022/07/08 05:12:00;;;;;;;10.33;2.03;;;;;;;17.64;52.80;101899.59;5027926;28;20594;-64
2022/07/08 05:14:28;;;;;;;4.47;1.80;;;;;;;17.69;53.06;101896.44;5031513;28;20209;-65
2022/07/08 05:16:55;;;;;;;7.57;2.10;;;;;;;17.73;52.89;101897.81;5032206;28;20632;-65
2022/07/08 05:19:23;;;;;;;15.03;2.47;;;;;;;17.78;52.84;101906.19;5031150;28;20212;-65
2022/07/08 05:21:52;;;;;;;5.37;1.50;;;;;;;17.84;53.18;101894.00;5031608;28;20669;-65
2022/07/08 05:24:20;;;;;;;10.20;2.17;;;;;;;17.86;53.27;101908.94;5031291;28;20626;-65
2022/07/08 05:26:48;;;;;;;8.13;1.47;;;;;;;17.86;53.42;101903.56;5031094;28;20264;-65
2022/07/08 05:29:16;;;;;;;6.93;1.70;;;;;;;17.98;53.24;101901.44;5029063;28;20692;-65
2022/07/08 05:31:44;;;;;;;7.77;1.90;;;;;;;18.04;53.02;101900.78;5030708;28;20227;-64
2022/07/08 05:34:12;;;;;;;6.83;2.17;;;;;;;18.04;53.53;101908.84;5022375;28;20201;-65
2022/07/08 05:36:40;;;;;;;5.63;1.40;;;;;;;18.06;53.23;101904.16;5021915;28;20600;-65
2022/07/08 05:39:09;;;;;;;11.20;2.13;;;;;;;18.11;53.82;101911.72;5031498;28;20201;-65
2022/07/08 05:41:36;;;;;;;6.47;1.57;;;;;;;18.17;53.53;101911.91;5031524;28;20256;-67
2022/07/08 05:44:07;;;;;;;9.57;2.03;;;;;;;18.27;52.67;101918.00;5029893;28;20201;-65
2022/07/08 05:46:35;;;;;;;7.97;1.80;;;;;;;18.34;53.33;101919.00;5026867;28;20204;-64
2022/07/08 05:49:03;;;;;;;7.27;2.43;;;;;;;18.37;52.33;101913.31;5030131;28;20213;-64
2022/07/08 05:51:30;;;;;;;8.27;1.77;;;;;;;18.36;52.21;101917.00;5034863;28;20766;-65
2022/07/08 05:53:58;;;;;;;7.37;1.90;;;;;;;18.37;52.30;101936.66;5029701;28;20213;-66
2022/07/08 05:56:27;;;;;;;5.87;1.30;;;;;;;18.43;52.30;101931.47;5030140;28;20240;-65
2022/07/08 05:59:01;;;;;;;5.30;1.83;;;;;;;18.45;52.54;101927.78;5030750;28;20208;-65
2022/07/08 06:01:29;;;;;;;9.60;2.10;;;;;;;18.52;51.88;101931.47;5016792;28;20284;-65
2022/07/08 06:03:57;;;;;;;6.10;1.53;;;;;;;18.61;51.01;101931.38;5029883;28;20212;-65
2022/07/08 06:06:24;;;;;;;8.17;1.70;;;;;;;18.70;50.83;101934.91;5029630;28;20224;-66
2022/07/08 06:08:52;;;;;;;4.60;1.83;;;;;;;18.70;50.96;101941.13;5030595;28;20208;-65
2022/07/08 06:11:20;;;;;;;6.37;1.60;;;;;;;18.77;51.11;101942.13;5030813;28;20557;-66
2022/07/08 06:13:49;;;;;;;11.60;1.67;;;;;;;18.81;50.62;101939.97;5030472;28;20676;-66
2022/07/08 06:16:17;;;;;;;8.97;2.40;;;;;;;18.87;50.27;101936.59;5030185;28;20212;-66
2022/07/08 06:18:45;;;;;;;8.47;2.10;;;;;;;18.93;50.40;101935.94;5030510;28;20803;-64
2022/07/08 06:21:13;;;;;;;9.93;2.00;;;;;;;19.00;50.57;101946.84;5030561;28;20239;-64
2022/07/08 06:23:40;;;;;;;6.00;1.57;;;;;;;19.03;50.33;101951.88;5029731;28;20233;-65
2022/07/08 06:26:08;;;;;;;5.87;1.43;;;;;;;19.06;50.04;101947.03;5023098;28;20208;-65
2022/07/08 06:28:36;;;;;;;7.27;1.67;;;;;;;19.11;49.69;101950.03;5030466;28;20634;-64
2022/07/08 06:31:05;;;;;;;6.77;1.70;;;;;;;19.20;49.35;101952.72;5030837;28;20643;-65
2022/07/08 06:33:34;;;;;;;10.40;1.70;;;;;;;19.26;49.10;101954.75;5033341;28;20608;-65
2022/07/08 06:36:01;;;;;;;8.43;1.73;;;;;;;19.30;49.44;101954.25;5040093;28;20212;-65
2022/07/08 06:38:29;;;;;;;5.40;1.33;;;;;;;19.29;49.37;101960.63;5022306;28;20316;-66
2022/07/08 06:40:58;;;;;;;7.77;1.43;;;;;;;19.31;49.49;101961.31;5030075;28;20216;-66
2022/07/08 06:43:26;;;;;;;12.57;2.17;;;;;;;19.35;48.84;101961.81;5027995;28;20233;-66
2022/07/08 06:45:54;;;;;;;6.80;1.67;;;;;;;19.37;48.47;101957.94;5029010;28;20207;-65
2022/07/08 06:48:23;;;;;;;6.20;1.40;;;;;;;19.43;48.29;101964.50;5030732;28;20642;-66
2022/07/08 06:50:50;;;;;;;8.87;1.37;;;;;;;19.40;48.11;101970.22;5028920;28;20243;-65
2022/07/08 06:53:18;;;;;;;5.80;1.43;;;;;;;19.38;47.87;101966.84;5030140;28;20211;-66
2022/07/08 06:55:46;;;;;;;9.40;1.63;;;;;;;19.42;47.78;101957.44;5030503;28;20343;-65
2022/07/08 06:58:14;;;;;;;7.83;1.30;;;;;;;19.52;47.42;101966.19;5029598;28;20235;-65
2022/07/08 07:00:41;;;;;;;7.07;1.73;;;;;;;19.58;47.40;101960.13;5030099;28;20307;-65
2022/07/08 07:03:09;;;;;;;6.97;1.67;;;;;;;19.63;46.60;101960.44;5028932;28;20259;-65
2022/07/08 07:05:38;;;;;;;5.17;1.40;;;;;;;19.65;46.67;101953.03;5030481;28;20232;-66
2022/07/08 07:08:06;;;;;;;5.77;1.17;;;;;;;19.63;47.18;101963.13;5030314;28;20305;-65
2022/07/08 07:10:36;;;;;;;11.23;2.60;;;;;;;19.68;46.61;101962.63;5030386;28;20231;-65
2022/07/08 07:13:03;;;;;;;7.30;1.67;;;;;;;19.75;46.27;101960.94;5029506;28;20228;-65
2022/07/08 07:15:31;;;;;;;6.27;1.27;;;;;;;19.82;45.99;101962.75;5030485;28;20216;-65
2022/07/08 07:17:59;;;;;;;4.80;1.27;;;;;;;19.86;45.05;101961.41;5029692;28;20232;-65
2022/07/08 07:20:27;;;;;;;8.63;1.60;;;;;;;19.94;44.91;101968.63;5028976;28;20245;-64
2022/07/08 07:22:56;;;;;;;7.77;1.43;;;;;;;19.94;45.29;101962.41;5033105;28;20235;-66
2022/07/08 07:25:23;;;;;;;3.57;1.20;;;;;;;19.85;45.60;101964.28;5030011;28;20204;-64
2022/07/08 07:27:51;;;;;;;7.27;1.17;;;;;;;19.82;45.55;101967.31;5029468;28;20303;-65
2022/07/08 07:30:21;;;;;;;7.13;1.20;;;;;;;19.79;45.33;101963.09;5029441;28;20208;-65
2022/07/08 07:32:49;;;;;;;7.47;1.40;;;;;;;19.78;45.23;101968.69;5028720;28;20604;-66
2022/07/08 07:35:24;;;;;;;3.83;1.03;;;;;;;19.74;45.31;101965.47;5029125;28;20280;-66
2022/07/08 07:37:52;;;;;;;6.40;1.20;;;;;;;19.71;45.34;101968.50;5029888;28;20300;-67
2022/07/08 07:40:25;;;;;;;6.97;2.03;;;;;;;19.66;44.98;101970.88;5029935;28;20647;-66
2022/07/08 07:42:52;;;;;;;5.50;1.40;;;;;;;19.65;44.17;101974.56;5029408;28;20314;-66
2022/07/08 07:45:25;;;;;;;4.20;1.40;;;;;;;19.60;44.55;101976.94;5029821;28;20260;-66
2022/07/08 07:47:53;;;;;;;6.90;1.40;;;;;;;19.53;44.63;101971.38;5029614;28;20211;-67
2022/07/08 07:50:22;;;;;;;5.47;0.80;;;;;;;19.60;44.29;101965.34;5029594;28;20835;-66
2022/07/08 07:52:49;;;;;;;7.00;1.60;;;;;;;19.66;44.25;101965.50;5028780;28;20228;-66
2022/07/08 07:55:17;;;;;;;8.70;1.33;;;;;;;19.74;43.81;101970.84;5027923;28;20246;-66
2022/07/08 07:57:48;;;;;;;8.23;1.80;;;;;;;19.69;43.77;101962.47;5028960;28;20761;-66
2022/07/08 08:00:17;;;;;;;6.03;1.83;;;;;;;19.66;43.87;101970.88;5029486;28;20261;-65
2022/07/08 08:02:45;;;;;;;4.57;1.67;;;;;;;19.63;44.50;101968.53;5028550;28;20672;-66
2022/07/08 08:05:13;;;;;;;5.60;1.40;;;;;;;19.72;44.47;101964.78;5028583;28;20307;-65
2022/07/08 08:07:47;;;;;;;10.37;1.83;;;;;;;19.86;44.32;101961.41;5030379;28;20220;-65
2022/07/08 08:10:14;;;;;;;5.63;1.10;;;;;;;20.03;43.98;101966.75;5033218;28;20427;-65
2022/07/08 08:12:42;;;;;;;4.77;1.17;;;;;;;20.14;43.33;101963.69;5032394;28;20304;-65
2022/07/08 08:15:14;;;;;;;7.00;1.57;;;;;;;20.19;43.42;101977.44;5033153;28;20629;-66
2022/07/08 08:17:42;;;;;;;6.77;1.13;;;;;;;20.20;43.16;101974.59;5032536;28;20215;-65
2022/07/08 08:20:13;;;;;;;7.17;1.17;;;;;;;20.29;43.32;101978.09;5027527;28;20266;-65
2022/07/08 08:22:41;;;;;;;3.80;1.40;;;;;;;20.43;43.35;101977.34;5031986;28;20209;-65
2022/07/08 08:25:31;;;;;;;9.97;1.80;;;;;;;20.49;43.48;101979.34;5033526;28;20219;-65
2022/07/08 08:28:06;;;;;;;7.00;2.10;;;;;;;20.51;43.59;101979.16;5032664;28;20289;-65
2022/07/08 08:30:35;;;;;;;11.63;1.60;;;;;;;20.47;43.28;101981.41;5033337;28;20240;-66
2022/07/08 08:33:04;;;;;;;7.70;1.47;;;;;;;20.43;43.61;101990.00;5031952;28;20275;-66
2022/07/08 08:35:32;;;;;;;10.13;1.97;;;;;;;20.33;43.50;101979.38;5019261;28;20315;-66
2022/07/08 08:38:00;;;;;;;7.47;1.40;;;;;;;20.23;42.86;101979.59;5032896;28;20208;-66
2022/07/08 08:40:29;;;;;;;6.17;1.20;;;;;;;20.18;42.88;101986.53;5030670;28;20263;-65
2022/07/08 08:42:56;;;;;;;6.77;1.37;;;;;;;20.21;43.14;101983.50;5030329;28;20219;-66
2022/07/08 08:45:33;;;;;;;4.53;1.20;;;;;;;20.20;42.75;101979.13;5032216;28;20204;-65
2022/07/08 08:48:11;;;;;;;6.53;1.30;;;;;;;20.20;42.66;101981.81;5033343;28;20239;-66
2022/07/08 08:50:56;;;;;;;6.17;1.60;;;;;;;20.31;42.59;101994.91;5032865;28;20642;-66
2022/07/08 08:53:37;;;;;;;10.57;1.50;;;;;;;20.48;43.31;101988.47;5031050;28;20197;-67
2022/07/08 08:56:10;;;;;;;8.97;1.40;;;;;;;20.73;42.69;101991.00;5032327;28;20219;-65
2022/07/08 08:58:46;;;;;;;3.40;1.40;;;;;;;20.90;42.66;101992.59;5031631;28;20205;-66
2022/07/08 09:01:16;;;;;;;7.77;1.27;;;;;;;20.84;42.05;101991.47;5035224;28;20236;-66
2022/07/08 09:03:48;;;;;;;5.50;1.63;;;;;;;20.80;41.64;101989.28;5031906;28;20235;-67
2022/07/08 09:06:23;;;;;;;7.83;1.20;;;;;;;20.79;41.43;101988.44;5031584;28;20209;-66
2022/07/08 09:08:53;;;;;;;6.63;1.20;;;;;;;20.96;42.32;101987.31;5032580;28;20213;-65
2022/07/08 09:11:21;;;;;;;7.30;1.20;;;;;;;21.14;41.53;101989.69;5032062;28;20260;-66
2022/07/08 09:14:20;;;;;;;5.17;1.37;;;;;;;21.15;41.74;101986.00;5030663;28;20215;-66
2022/07/08 09:17:11;;;;;;;5.30;2.13;;;;;;;21.28;41.84;101980.88;5029389;28;20232;-66
2022/07/08 09:19:42;;;;;;;5.67;1.50;;;;;;;21.39;41.17;101983.09;5031248;28;20264;-65
2022/07/08 09:22:18;;;;;;;9.27;1.60;;;;;;;21.48;41.21;101974.94;5030842;28;20201;-65
2022/07/08 09:24:46;;;;;;;4.93;1.10;;;;;;;21.51;41.67;101978.13;5032813;28;20260;-67
2022/07/08 09:27:17;;;;;;;6.07;1.40;;;;;;;21.53;41.47;101976.09;5043216;28;20259;-66
2022/07/08 09:29:57;;;;;;;5.73;1.20;;;;;;;21.45;41.68;101972.63;5026155;28;20213;-66
2022/07/08 09:32:25;;;;;;;8.63;1.63;;;;;;;21.61;41.32;101975.16;5030345;28;20252;-66
2022/07/08 09:34:54;;;;;;;3.67;0.90;;;;;;;21.80;40.58;101974.63;5031630;28;20868;-66
2022/07/08 09:37:22;;;;;;;6.07;1.37;;;;;;;21.88;39.72;101963.72;5031014;28;20221;-66
2022/07/08 09:39:51;;;;;;;5.90;1.30;;;;;;;21.92;40.03;101965.00;5028824;28;20251;-67
2022/07/08 09:42:21;;;;;;;7.00;1.17;;;;;;;21.99;39.85;101965.13;5024390;28;20208;-67
2022/07/08 09:44:53;;;;;;;5.33;1.60;;;;;;;22.11;40.80;101969.06;5031652;28;20225;-65
2022/07/08 09:47:21;;;;;;;10.53;1.70;;;;;;;22.12;40.34;101962.63;5034417;28;20288;-64
2022/07/08 09:49:49;;;;;;;10.10;1.97;;;;;;;22.17;40.03;101962.88;5031187;28;20359;-65
2022/07/08 09:52:26;;;;;;;7.70;1.60;;;;;;;22.15;39.47;101967.66;5030259;28;20209;-66
2022/07/08 09:55:02;;;;;;;8.20;1.30;;;;;;;22.12;39.66;101960.75;5031138;28;20215;-66
2022/07/08 09:57:33;;;;;;;6.23;1.03;;;;;;;22.17;39.89;101953.94;5030603;28;20407;-65
2022/07/08 10:00:06;;;;;;;7.13;1.40;;;;;;;22.26;40.14;101959.06;5038703;28;20212;-65
2022/07/08 10:02:35;;;;;;;6.57;1.40;;;;;;;22.37;39.80;101960.44;5031943;28;20220;-66
2022/07/08 10:05:03;;;;;;;4.40;1.20;;;;;;;22.48;39.77;101952.69;5030548;28;20792;-65
2022/07/08 10:07:35;;;;;;;3.63;1.40;;;;;;;22.66;40.07;101964.94;5031800;28;20255;-66
2022/07/08 10:10:03;;;;;;;6.05;1.40;;;;;;;22.85;39.70;101965.19;5024604;28;20205;-66
2022/07/08 10:12:33;;;;;;;7.82;1.67;;;;;;;22.81;38.80;101961.19;5029294;28;20212;-66
2022/07/08 10:15:03;;;;;;;7.63;1.50;;;;;;;22.89;38.28;101966.47;5030607;28;20278;-65
2022/07/08 10:17:39;;;;;;;6.40;1.13;;;;;;;22.87;38.40;101963.09;5031129;28;20649;-67
2022/07/08 10:20:20;;;;;;;5.47;1.30;;;;;;;22.89;38.38;101957.50;5029920;28;20248;-66
2022/07/08 10:22:58;;;;;;;8.48;3.10;;;;;;;22.81;39.16;101958.47;5029735;28;20213;-67
2022/07/08 10:25:30;;;;;;;6.03;1.33;;;;;;;22.91;38.87;101962.72;5018130;28;20583;-67
2022/07/08 10:28:06;;;;;;;5.90;1.35;;;;;;;23.09;38.85;101960.41;5030818;28;20200;-65
2022/07/08 10:30:50;;;;;;;4.70;1.40;;;;;;;23.31;38.67;101948.50;5018457;28;20282;-65
2022/07/08 10:33:29;;;;;;;5.75;1.40;;;;;;;23.32;38.10;101944.78;5032721;28;20212;-66
2022/07/08 10:36:05;;;;;;;4.35;1.30;;;;;;;23.36;37.78;101951.47;5028666;28;20222;-66
2022/07/08 10:38:40;;;;;;;6.25;1.15;;;;;;;23.34;38.57;101950.81;5029621;28;20292;-66
2022/07/08 10:41:09;;;;;;;4.90;1.50;;;;;;;23.42;38.89;101953.38;5031109;28;20239;-66
2022/07/08 10:43:37;;;;;;;3.47;1.15;;;;;;;23.60;38.03;101956.47;5027559;28;20207;-67
2022/07/08 10:46:12;;;;;;;6.80;1.60;;;;;;;23.71;37.90;101965.09;5025795;28;20337;-66
2022/07/08 10:48:54;;;;;;;5.05;1.10;;;;;;;23.52;37.88;101959.34;5030421;28;20223;-65
2022/07/08 10:51:45;;;;;;;9.63;1.65;;;;;;;23.57;37.84;101956.84;5017685;28;20212;-65
2022/07/08 10:54:28;;;;;;;6.78;1.88;;;;;;;23.68;37.95;101954.63;5029626;28;20204;-65
2022/07/08 10:56:58;;;;;;;12.57;1.95;;;;;;;23.76;38.24;101954.47;5041314;28;20785;-64
2022/07/08 10:59:27;;;;;;;3.03;1.25;;;;;;;23.90;37.29;101948.13;5030690;28;20252;-64
2022/07/08 11:01:59;;;;;;;5.07;1.58;;;;;;;23.88;36.97;101944.75;5030559;28;20231;-64
2022/07/08 11:04:29;;;;;;;7.75;1.60;;;;;;;24.01;36.91;101940.25;5029722;28;20235;-66
2022/07/08 11:07:28;;;;;;;4.85;1.40;;;;;;;24.05;36.55;101940.69;5030835;28;20658;-64
2022/07/08 11:10:04;;;;;;;9.00;1.55;;;;;;;23.97;37.32;101938.16;5030296;28;20213;-66
2022/07/08 11:12:34;;;;;;;7.32;1.40;;;;;;;23.98;36.84;101942.53;5042740;28;20203;-66
2022/07/08 11:15:07;;;;;;;5.32;1.17;;;;;;;24.31;36.15;101943.53;5031447;28;20224;-65
2022/07/08 11:17:40;;;;;;;6.15;1.67;;;;;;;24.19;36.15;101945.13;5030477;28;20571;-65
2022/07/08 11:20:11;;;;;;;7.40;1.60;;;;;;;24.26;36.31;101943.31;5029139;28;20212;-66
2022/07/08 11:22:40;;;;;;;4.57;1.40;;;;;;;24.26;36.31;101937.91;5029602;28;20212;-65
2022/07/08 11:25:14;;;;;;;7.18;1.65;;;;;;;24.33;35.57;101936.03;5029891;28;20252;-64
2022/07/08 11:31:29;;;;;;;10.00;1.70;;;;;;;24.47;35.32;101928.78;5023299;28;20634;-66
2022/07/08 11:33:57;;;;;;;8.85;1.73;;;;;;;24.61;35.70;101933.22;5029323;28;20263;-64
2022/07/08 11:36:27;;;;;;;7.70;1.40;;;;;;;24.55;35.75;101928.59;5030095;28;20219;-65
2022/07/08 11:38:55;;;;;;;4.50;1.23;;;;;;;24.74;35.63;101929.66;5015139;28;20209;-65
2022/07/08 11:41:28;;;;;;;5.10;1.48;;;;;;;24.81;35.88;101935.94;5029213;28;20691;-65
2022/07/08 11:43:59;;;;;;;6.60;1.27;;;;;;;24.67;35.03;101923.41;5031439;28;20208;-66